sensor_id;sensor_type;location;lat;lon;timestamp;P1;durP1;ratioP1;P2;durP2;ratioP2
48845;SDS011;34665;51.886;5.436;2022-10-26T00:01:27;16.48;;;7.15;;
48845;SDS011;34665;51.886;5.436;2022-10-26T00:03:53;15.53;;;6.60;;
48845;SDS011;34665;51.886;5.436;2022-10-26T00:06:21;13.30;;;6.30;;
48845;SDS011;34665;51.886;5.436;2022-10-26T00:08:53;12.60;;;6.53;;
48845;SDS011;34665;51.886;5.436;2022-10-26T00:11:19;12.23;;;6.43;;
48845;SDS011;34665;51.886;5.436;2022-10-26T00:13:45;11.45;;;6.03;;
48845;SDS011;34665;51.886;5.436;2022-10-26T00:16:23;14.02;;;6.15;;
48845;SDS011;34665;51.886;5.436;2022-10-26T00:18:51;15.33;;;6.57;;
48845;SDS011;34665;51.886;5.436;2022-10-26T00:21:17;11.80;;;5.53;;
48845;SDS011;34665;51.886;5.436;2022-10-26T00:23:43;11.80;;;5.90;;
48845;SDS011;34665;51.886;5.436;2022-10-26T00:26:09;13.48;;;6.40;;
48845;SDS011;34665;51.886;5.436;2022-10-26T00:28:35;10.82;;;6.07;;
48845;SDS011;34665;51.886;5.436;2022-10-26T00:31:04;13.57;;;6.17;;
48845;SDS011;34665;51.886;5.436;2022-10-26T00:33:31;10.33;;;5.70;;
48845;SDS011;34665;51.886;5.436;2022-10-26T00:35:56;10.03;;;6.30;;
48845;SDS011;34665;51.886;5.436;2022-10-26T00:38:22;13.17;;;5.63;;
48845;SDS011;34665;51.886;5.436;2022-10-26T00:40:47;12.60;;;5.95;;
48845;SDS011;34665;51.886;5.436;2022-10-26T00:45:44;18.87;;;6.70;;
48845;SDS011;34665;51.886;5.436;2022-10-26T00:48:18;9.93;;;5.63;;
48845;SDS011;34665;51.886;5.436;2022-10-26T00:50:49;12.70;;;6.50;;
48845;SDS011;34665;51.886;5.436;2022-10-26T00:53:15;13.37;;;6.50;;
48845;SDS011;34665;51.886;5.436;2022-10-26T00:55:43;9.57;;;5.93;;
48845;SDS011;34665;51.886;5.436;2022-10-26T00:58:11;13.80;;;6.17;;
48845;SDS011;34665;51.886;5.436;2022-10-26T01:00:38;15.47;;;6.93;;
48845;SDS011;34665;51.886;5.436;2022-10-26T01:03:06;16.40;;;5.97;;
48845;SDS011;34665;51.886;5.436;2022-10-26T01:05:33;13.80;;;5.80;;
48845;SDS011;34665;51.886;5.436;2022-10-26T01:08:00;15.07;;;5.40;;
48845;SDS011;34665;51.886;5.436;2022-10-26T01:10:26;12.68;;;6.00;;
48845;SDS011;34665;51.886;5.436;2022-10-26T01:12:53;15.73;;;6.15;;
48845;SDS011;34665;51.886;5.436;2022-10-26T01:15:23;13.67;;;5.93;;
48845;SDS011;34665;51.886;5.436;2022-10-26T01:17:59;12.27;;;6.07;;
48845;SDS011;34665;51.886;5.436;2022-10-26T01:20:38;17.27;;;6.32;;
48845;SDS011;34665;51.886;5.436;2022-10-26T01:23:19;16.27;;;6.30;;
48845;SDS011;34665;51.886;5.436;2022-10-26T01:26:21;12.70;;;6.73;;
48845;SDS011;34665;51.886;5.436;2022-10-26T01:32:59;13.33;;;7.17;;
48845;SDS011;34665;51.886;5.436;2022-10-26T01:35:09;20.37;;;8.00;;
48845;SDS011;34665;51.886;5.436;2022-10-26T01:37:45;17.13;;;8.23;;
48845;SDS011;34665;51.886;5.436;2022-10-26T01:40:20;14.03;;;7.83;;
48845;SDS011;34665;51.886;5.436;2022-10-26T01:42:48;20.93;;;9.23;;
48845;SDS011;34665;51.886;5.436;2022-10-26T01:45:17;21.50;;;9.50;;
48845;SDS011;34665;51.886;5.436;2022-10-26T01:47:43;20.00;;;8.60;;
48845;SDS011;34665;51.886;5.436;2022-10-26T01:50:12;27.37;;;9.13;;
48845;SDS011;34665;51.886;5.436;2022-10-26T01:52:38;14.27;;;8.77;;
48845;SDS011;34665;51.886;5.436;2022-10-26T01:58:10;15.63;;;6.90;;
48845;SDS011;34665;51.886;5.436;2022-10-26T02:00:47;15.53;;;7.23;;
48845;SDS011;34665;51.886;5.436;2022-10-26T02:03:29;12.10;;;6.70;;
48845;SDS011;34665;51.886;5.436;2022-10-26T02:06:12;13.70;;;6.93;;
48845;SDS011;34665;51.886;5.436;2022-10-26T02:08:56;15.70;;;6.77;;
48845;SDS011;34665;51.886;5.436;2022-10-26T02:11:31;16.27;;;7.47;;
48845;SDS011;34665;51.886;5.436;2022-10-26T02:16:56;13.87;;;6.57;;
48845;SDS011;34665;51.886;5.436;2022-10-26T02:19:29;14.03;;;7.10;;
48845;SDS011;34665;51.886;5.436;2022-10-26T02:22:18;20.93;;;10.83;;
48845;SDS011;34665;51.886;5.436;2022-10-26T02:24:49;30.47;;;13.93;;
48845;SDS011;34665;51.886;5.436;2022-10-26T02:27:24;13.87;;;6.53;;
48845;SDS011;34665;51.886;5.436;2022-10-26T02:29:51;14.43;;;6.73;;
48845;SDS011;34665;51.886;5.436;2022-10-26T02:32:20;21.10;;;7.37;;
48845;SDS011;34665;51.886;5.436;2022-10-26T02:34:48;16.23;;;6.17;;
48845;SDS011;34665;51.886;5.436;2022-10-26T02:37:16;13.53;;;5.60;;
48845;SDS011;34665;51.886;5.436;2022-10-26T02:39:45;18.03;;;6.37;;
48845;SDS011;34665;51.886;5.436;2022-10-26T02:42:13;9.97;;;6.20;;
48845;SDS011;34665;51.886;5.436;2022-10-26T02:44:40;10.15;;;5.18;;
48845;SDS011;34665;51.886;5.436;2022-10-26T02:47:10;15.20;;;6.70;;
48845;SDS011;34665;51.886;5.436;2022-10-26T02:49:36;11.67;;;5.77;;
48845;SDS011;34665;51.886;5.436;2022-10-26T02:55:19;16.33;;;6.90;;
48845;SDS011;34665;51.886;5.436;2022-10-26T02:57:56;10.93;;;6.03;;
48845;SDS011;34665;51.886;5.436;2022-10-26T03:00:26;16.17;;;7.10;;
48845;SDS011;34665;51.886;5.436;2022-10-26T03:02:54;13.67;;;7.07;;
48845;SDS011;34665;51.886;5.436;2022-10-26T03:05:25;16.50;;;6.37;;
48845;SDS011;34665;51.886;5.436;2022-10-26T03:07:52;14.87;;;6.87;;
48845;SDS011;34665;51.886;5.436;2022-10-26T03:10:19;18.60;;;6.70;;
48845;SDS011;34665;51.886;5.436;2022-10-26T03:12:44;11.80;;;6.32;;
48845;SDS011;34665;51.886;5.436;2022-10-26T03:15:10;14.90;;;6.47;;
48845;SDS011;34665;51.886;5.436;2022-10-26T03:17:36;17.33;;;5.60;;
48845;SDS011;34665;51.886;5.436;2022-10-26T03:20:02;12.95;;;6.57;;
48845;SDS011;34665;51.886;5.436;2022-10-26T03:22:27;13.15;;;5.72;;
48845;SDS011;34665;51.886;5.436;2022-10-26T03:24:53;10.90;;;5.60;;
48845;SDS011;34665;51.886;5.436;2022-10-26T03:27:19;12.05;;;6.07;;
48845;SDS011;34665;51.886;5.436;2022-10-26T03:29:44;11.02;;;6.20;;
48845;SDS011;34665;51.886;5.436;2022-10-26T03:32:10;10.67;;;5.87;;
48845;SDS011;34665;51.886;5.436;2022-10-26T03:34:35;15.63;;;6.38;;
48845;SDS011;34665;51.886;5.436;2022-10-26T03:37:01;9.45;;;5.50;;
48845;SDS011;34665;51.886;5.436;2022-10-26T03:39:26;15.10;;;6.15;;
48845;SDS011;34665;51.886;5.436;2022-10-26T03:41:52;17.83;;;6.53;;
48845;SDS011;34665;51.886;5.436;2022-10-26T03:44:20;13.67;;;5.93;;
48845;SDS011;34665;51.886;5.436;2022-10-26T03:46:46;14.88;;;6.68;;
48845;SDS011;34665;51.886;5.436;2022-10-26T03:49:11;18.00;;;6.30;;
48845;SDS011;34665;51.886;5.436;2022-10-26T03:51:37;12.05;;;6.28;;
48845;SDS011;34665;51.886;5.436;2022-10-26T03:54:02;14.70;;;6.40;;
48845;SDS011;34665;51.886;5.436;2022-10-26T03:56:28;11.15;;;5.85;;
48845;SDS011;34665;51.886;5.436;2022-10-26T03:58:54;11.93;;;5.97;;
48845;SDS011;34665;51.886;5.436;2022-10-26T04:01:19;12.55;;;6.10;;
48845;SDS011;34665;51.886;5.436;2022-10-26T04:03:45;11.57;;;5.50;;
48845;SDS011;34665;51.886;5.436;2022-10-26T04:06:11;15.73;;;5.63;;
48845;SDS011;34665;51.886;5.436;2022-10-26T04:08:36;15.80;;;6.32;;
48845;SDS011;34665;51.886;5.436;2022-10-26T04:11:02;22.73;;;6.38;;
48845;SDS011;34665;51.886;5.436;2022-10-26T04:13:27;12.97;;;6.07;;
48845;SDS011;34665;51.886;5.436;2022-10-26T04:15:53;14.50;;;5.47;;
48845;SDS011;34665;51.886;5.436;2022-10-26T04:18:18;11.43;;;5.13;;
48845;SDS011;34665;51.886;5.436;2022-10-26T04:20:44;16.88;;;6.30;;
48845;SDS011;34665;51.886;5.436;2022-10-26T04:23:13;16.75;;;6.55;;
48845;SDS011;34665;51.886;5.436;2022-10-26T04:25:40;14.23;;;6.10;;
48845;SDS011;34665;51.886;5.436;2022-10-26T04:28:07;14.50;;;5.93;;
48845;SDS011;34665;51.886;5.436;2022-10-26T04:30:33;9.73;;;5.90;;
48845;SDS011;34665;51.886;5.436;2022-10-26T04:32:59;16.48;;;5.47;;
48845;SDS011;34665;51.886;5.436;2022-10-26T04:35:25;20.80;;;6.30;;
48845;SDS011;34665;51.886;5.436;2022-10-26T04:37:55;14.48;;;5.60;;
48845;SDS011;34665;51.886;5.436;2022-10-26T04:40:25;15.90;;;6.63;;
48845;SDS011;34665;51.886;5.436;2022-10-26T04:45:17;12.53;;;6.10;;
48845;SDS011;34665;51.886;5.436;2022-10-26T04:47:42;18.17;;;6.68;;
48845;SDS011;34665;51.886;5.436;2022-10-26T04:50:09;16.00;;;7.50;;
48845;SDS011;34665;51.886;5.436;2022-10-26T04:52:36;12.87;;;5.57;;
48845;SDS011;34665;51.886;5.436;2022-10-26T04:55:02;11.60;;;5.97;;
48845;SDS011;34665;51.886;5.436;2022-10-26T04:57:32;12.07;;;5.87;;
48845;SDS011;34665;51.886;5.436;2022-10-26T04:59:59;14.50;;;5.70;;
48845;SDS011;34665;51.886;5.436;2022-10-26T05:02:25;14.00;;;6.00;;
48845;SDS011;34665;51.886;5.436;2022-10-26T05:04:54;14.90;;;6.57;;
48845;SDS011;34665;51.886;5.436;2022-10-26T05:07:19;15.43;;;6.07;;
48845;SDS011;34665;51.886;5.436;2022-10-26T05:09:45;8.63;;;5.37;;
48845;SDS011;34665;51.886;5.436;2022-10-26T05:12:10;14.27;;;5.68;;
48845;SDS011;34665;51.886;5.436;2022-10-26T05:14:37;12.93;;;5.63;;
48845;SDS011;34665;51.886;5.436;2022-10-26T05:17:02;10.20;;;5.37;;
48845;SDS011;34665;51.886;5.436;2022-10-26T05:19:28;12.77;;;5.80;;
48845;SDS011;34665;51.886;5.436;2022-10-26T05:21:54;14.75;;;5.05;;
48845;SDS011;34665;51.886;5.436;2022-10-26T05:24:19;11.50;;;5.50;;
48845;SDS011;34665;51.886;5.436;2022-10-26T05:26:45;11.30;;;6.35;;
48845;SDS011;34665;51.886;5.436;2022-10-26T05:29:10;11.45;;;5.10;;
48845;SDS011;34665;51.886;5.436;2022-10-26T05:31:36;13.57;;;5.10;;
48845;SDS011;34665;51.886;5.436;2022-10-26T05:34:01;11.30;;;5.75;;
48845;SDS011;34665;51.886;5.436;2022-10-26T05:36:27;10.98;;;5.50;;
48845;SDS011;34665;51.886;5.436;2022-10-26T05:38:56;15.48;;;6.10;;
48845;SDS011;34665;51.886;5.436;2022-10-26T05:41:22;13.87;;;5.73;;
48845;SDS011;34665;51.886;5.436;2022-10-26T05:43:48;14.97;;;6.00;;
48845;SDS011;34665;51.886;5.436;2022-10-26T05:46:13;13.05;;;6.95;;
48845;SDS011;34665;51.886;5.436;2022-10-26T05:48:38;14.73;;;5.50;;
48845;SDS011;34665;51.886;5.436;2022-10-26T05:51:04;9.52;;;5.40;;
48845;SDS011;34665;51.886;5.436;2022-10-26T05:53:30;11.18;;;5.68;;
48845;SDS011;34665;51.886;5.436;2022-10-26T05:55:55;14.63;;;5.87;;
48845;SDS011;34665;51.886;5.436;2022-10-26T05:58:22;12.32;;;5.55;;
48845;SDS011;34665;51.886;5.436;2022-10-26T06:03:53;11.97;;;5.23;;
48845;SDS011;34665;51.886;5.436;2022-10-26T06:06:22;12.63;;;5.93;;
48845;SDS011;34665;51.886;5.436;2022-10-26T06:08:49;17.30;;;5.70;;
48845;SDS011;34665;51.886;5.436;2022-10-26T06:11:15;17.38;;;6.13;;
48845;SDS011;34665;51.886;5.436;2022-10-26T06:13:42;12.90;;;6.30;;
48845;SDS011;34665;51.886;5.436;2022-10-26T06:16:28;10.88;;;5.30;;
48845;SDS011;34665;51.886;5.436;2022-10-26T06:19:05;12.97;;;5.90;;
48845;SDS011;34665;51.886;5.436;2022-10-26T06:24:30;14.13;;;5.90;;
48845;SDS011;34665;51.886;5.436;2022-10-26T06:30:29;13.47;;;5.10;;
48845;SDS011;34665;51.886;5.436;2022-10-26T06:32:54;13.70;;;5.87;;
48845;SDS011;34665;51.886;5.436;2022-10-26T06:35:27;18.85;;;6.18;;
48845;SDS011;34665;51.886;5.436;2022-10-26T06:38:02;13.63;;;6.27;;
48845;SDS011;34665;51.886;5.436;2022-10-26T06:40:32;12.10;;;5.40;;
48845;SDS011;34665;51.886;5.436;2022-10-26T06:43:02;11.17;;;5.40;;
48845;SDS011;34665;51.886;5.436;2022-10-26T06:45:28;13.35;;;5.65;;
48845;SDS011;34665;51.886;5.436;2022-10-26T06:47:56;11.55;;;5.32;;
48845;SDS011;34665;51.886;5.436;2022-10-26T06:50:32;11.20;;;5.47;;
48845;SDS011;34665;51.886;5.436;2022-10-26T06:55:59;12.20;;;5.90;;
48845;SDS011;34665;51.886;5.436;2022-10-26T06:58:30;15.32;;;5.93;;
48845;SDS011;34665;51.886;5.436;2022-10-26T07:01:00;11.40;;;5.77;;
48845;SDS011;34665;51.886;5.436;2022-10-26T07:03:26;14.63;;;6.38;;
48845;SDS011;34665;51.886;5.436;2022-10-26T07:05:51;10.50;;;5.10;;
48845;SDS011;34665;51.886;5.436;2022-10-26T07:08:17;17.15;;;5.78;;
48845;SDS011;34665;51.886;5.436;2022-10-26T07:10:43;18.58;;;5.60;;
48845;SDS011;34665;51.886;5.436;2022-10-26T07:13:11;14.37;;;4.97;;
48845;SDS011;34665;51.886;5.436;2022-10-26T07:15:37;12.97;;;5.20;;
48845;SDS011;34665;51.886;5.436;2022-10-26T07:18:04;13.60;;;5.60;;
48845;SDS011;34665;51.886;5.436;2022-10-26T07:20:34;10.63;;;4.50;;
48845;SDS011;34665;51.886;5.436;2022-10-26T07:23:02;7.53;;;4.30;;
48845;SDS011;34665;51.886;5.436;2022-10-26T07:25:27;11.68;;;4.90;;
48845;SDS011;34665;51.886;5.436;2022-10-26T07:27:59;12.35;;;5.65;;
48845;SDS011;34665;51.886;5.436;2022-10-26T07:30:26;13.30;;;5.50;;
48845;SDS011;34665;51.886;5.436;2022-10-26T07:33:04;10.60;;;5.23;;
48845;SDS011;34665;51.886;5.436;2022-10-26T07:35:35;10.50;;;4.53;;
48845;SDS011;34665;51.886;5.436;2022-10-26T07:38:00;12.20;;;5.13;;
48845;SDS011;34665;51.886;5.436;2022-10-26T07:40:26;10.18;;;4.68;;
48845;SDS011;34665;51.886;5.436;2022-10-26T07:42:54;9.98;;;4.85;;
48845;SDS011;34665;51.886;5.436;2022-10-26T07:45:21;12.83;;;5.07;;
48845;SDS011;34665;51.886;5.436;2022-10-26T07:47:48;12.02;;;5.40;;
48845;SDS011;34665;51.886;5.436;2022-10-26T07:50:13;11.87;;;5.50;;
48845;SDS011;34665;51.886;5.436;2022-10-26T07:52:39;14.98;;;6.43;;
48845;SDS011;34665;51.886;5.436;2022-10-26T07:55:06;14.32;;;5.75;;
48845;SDS011;34665;51.886;5.436;2022-10-26T07:57:33;14.47;;;5.90;;
48845;SDS011;34665;51.886;5.436;2022-10-26T07:59:59;9.93;;;5.18;;
48845;SDS011;34665;51.886;5.436;2022-10-26T08:02:24;11.13;;;5.20;;
48845;SDS011;34665;51.886;5.436;2022-10-26T08:04:49;13.80;;;4.85;;
48845;SDS011;34665;51.886;5.436;2022-10-26T08:07:15;10.15;;;4.50;;
48845;SDS011;34665;51.886;5.436;2022-10-26T08:09:40;9.38;;;3.72;;
48845;SDS011;34665;51.886;5.436;2022-10-26T08:12:06;15.55;;;4.55;;
48845;SDS011;34665;51.886;5.436;2022-10-26T08:14:32;10.55;;;4.25;;
48845;SDS011;34665;51.886;5.436;2022-10-26T08:16:57;9.77;;;4.00;;
48845;SDS011;34665;51.886;5.436;2022-10-26T08:19:23;7.78;;;4.25;;
48845;SDS011;34665;51.886;5.436;2022-10-26T08:21:48;8.63;;;3.55;;
48845;SDS011;34665;51.886;5.436;2022-10-26T08:24:14;6.30;;;3.22;;
48845;SDS011;34665;51.886;5.436;2022-10-26T08:26:39;8.13;;;3.60;;
48845;SDS011;34665;51.886;5.436;2022-10-26T08:29:05;8.15;;;2.83;;
48845;SDS011;34665;51.886;5.436;2022-10-26T08:31:31;8.68;;;4.13;;
48845;SDS011;34665;51.886;5.436;2022-10-26T08:36:24;5.13;;;2.40;;
48845;SDS011;34665;51.886;5.436;2022-10-26T08:38:51;11.03;;;2.67;;
48845;SDS011;34665;51.886;5.436;2022-10-26T08:41:18;8.40;;;3.60;;
48845;SDS011;34665;51.886;5.436;2022-10-26T08:43:51;5.73;;;3.03;;
48845;SDS011;34665;51.886;5.436;2022-10-26T08:46:22;9.93;;;3.27;;
48845;SDS011;34665;51.886;5.436;2022-10-26T08:48:58;10.07;;;3.27;;
48845;SDS011;34665;51.886;5.436;2022-10-26T08:51:29;7.95;;;3.05;;
48845;SDS011;34665;51.886;5.436;2022-10-26T08:54:00;7.53;;;2.53;;
48845;SDS011;34665;51.886;5.436;2022-10-26T08:56:36;10.80;;;3.30;;
48845;SDS011;34665;51.886;5.436;2022-10-26T09:01:47;9.90;;;2.87;;
48845;SDS011;34665;51.886;5.436;2022-10-26T09:07:24;13.55;;;3.65;;
48845;SDS011;34665;51.886;5.436;2022-10-26T09:18:27;7.63;;;3.30;;
48845;SDS011;34665;51.886;5.436;2022-10-26T09:23:51;11.63;;;3.10;;
48845;SDS011;34665;51.886;5.436;2022-10-26T09:26:27;5.33;;;3.20;;
48845;SDS011;34665;51.886;5.436;2022-10-26T09:28:54;18.13;;;3.70;;
48845;SDS011;34665;51.886;5.436;2022-10-26T09:31:22;8.33;;;2.90;;
48845;SDS011;34665;51.886;5.436;2022-10-26T09:33:49;8.67;;;2.90;;
48845;SDS011;34665;51.886;5.436;2022-10-26T09:36:21;5.63;;;2.83;;
48845;SDS011;34665;51.886;5.436;2022-10-26T09:39:03;17.13;;;2.70;;
48845;SDS011;34665;51.886;5.436;2022-10-26T09:41:46;7.80;;;3.17;;
48845;SDS011;34665;51.886;5.436;2022-10-26T09:49:30;10.63;;;2.60;;
48845;SDS011;34665;51.886;5.436;2022-10-26T09:52:05;9.40;;;3.00;;
48845;SDS011;34665;51.886;5.436;2022-10-26T09:54:31;8.83;;;2.53;;
48845;SDS011;34665;51.886;5.436;2022-10-26T09:56:58;14.00;;;2.80;;
48845;SDS011;34665;51.886;5.436;2022-10-26T09:59:26;7.40;;;2.70;;
48845;SDS011;34665;51.886;5.436;2022-10-26T10:01:55;8.53;;;2.47;;
48845;SDS011;34665;51.886;5.436;2022-10-26T10:04:21;6.85;;;2.38;;
48845;SDS011;34665;51.886;5.436;2022-10-26T10:06:51;11.83;;;2.70;;
48845;SDS011;34665;51.886;5.436;2022-10-26T10:09:35;7.33;;;2.60;;
48845;SDS011;34665;51.886;5.436;2022-10-26T10:14:31;9.10;;;2.50;;
48845;SDS011;34665;51.886;5.436;2022-10-26T10:17:04;8.55;;;2.90;;
48845;SDS011;34665;51.886;5.436;2022-10-26T10:19:35;9.38;;;2.70;;
48845;SDS011;34665;51.886;5.436;2022-10-26T10:22:10;6.05;;;2.30;;
48845;SDS011;34665;51.886;5.436;2022-10-26T10:24:52;5.75;;;1.98;;
48845;SDS011;34665;51.886;5.436;2022-10-26T10:27:20;10.27;;;2.42;;
48845;SDS011;34665;51.886;5.436;2022-10-26T10:29:48;10.93;;;2.08;;
48845;SDS011;34665;51.886;5.436;2022-10-26T10:32:20;5.57;;;2.03;;
48845;SDS011;34665;51.886;5.436;2022-10-26T10:34:55;7.38;;;2.50;;
48845;SDS011;34665;51.886;5.436;2022-10-26T10:37:24;8.07;;;2.30;;
48845;SDS011;34665;51.886;5.436;2022-10-26T10:39:58;7.57;;;2.83;;
48845;SDS011;34665;51.886;5.436;2022-10-26T10:42:26;5.85;;;2.10;;
48845;SDS011;34665;51.886;5.436;2022-10-26T10:44:57;8.50;;;2.28;;
48845;SDS011;34665;51.886;5.436;2022-10-26T10:47:29;6.75;;;2.20;;
48845;SDS011;34665;51.886;5.436;2022-10-26T10:49:57;6.63;;;2.13;;
48845;SDS011;34665;51.886;5.436;2022-10-26T10:52:30;8.50;;;2.10;;
48845;SDS011;34665;51.886;5.436;2022-10-26T10:55:09;8.82;;;2.70;;
48845;SDS011;34665;51.886;5.436;2022-10-26T10:57:51;6.25;;;2.40;;
48845;SDS011;34665;51.886;5.436;2022-10-26T11:00:35;4.93;;;2.08;;
48845;SDS011;34665;51.886;5.436;2022-10-26T11:08:27;7.20;;;1.75;;
48845;SDS011;34665;51.886;5.436;2022-10-26T11:11:00;10.40;;;2.72;;
48845;SDS011;34665;51.886;5.436;2022-10-26T11:13:32;10.63;;;2.80;;
48845;SDS011;34665;51.886;5.436;2022-10-26T11:16:15;8.50;;;2.70;;
48845;SDS011;34665;51.886;5.436;2022-10-26T11:18:49;7.37;;;2.60;;
48845;SDS011;34665;51.886;5.436;2022-10-26T11:24:03;6.67;;;2.43;;
48845;SDS011;34665;51.886;5.436;2022-10-26T11:26:38;8.93;;;2.83;;
48845;SDS011;34665;51.886;5.436;2022-10-26T11:29:16;9.13;;;3.20;;
48845;SDS011;34665;51.886;5.436;2022-10-26T11:31:58;17.53;;;3.83;;
48845;SDS011;34665;51.886;5.436;2022-10-26T11:34:36;9.37;;;3.50;;
48845;SDS011;34665;51.886;5.436;2022-10-26T11:37:11;7.43;;;3.60;;
48845;SDS011;34665;51.886;5.436;2022-10-26T11:39:45;9.00;;;3.80;;
48845;SDS011;34665;51.886;5.436;2022-10-26T11:42:25;8.13;;;3.87;;
48845;SDS011;34665;51.886;5.436;2022-10-26T11:45:17;11.73;;;3.90;;
48845;SDS011;34665;51.886;5.436;2022-10-26T11:47:51;11.70;;;3.40;;
48845;SDS011;34665;51.886;5.436;2022-10-26T11:50:23;6.93;;;3.23;;
48845;SDS011;34665;51.886;5.436;2022-10-26T11:53:07;5.93;;;2.67;;
48845;SDS011;34665;51.886;5.436;2022-10-26T11:55:34;6.82;;;2.72;;
48845;SDS011;34665;51.886;5.436;2022-10-26T11:58:00;10.13;;;2.70;;
48845;SDS011;34665;51.886;5.436;2022-10-26T12:00:28;9.60;;;3.35;;
48845;SDS011;34665;51.886;5.436;2022-10-26T12:02:55;8.80;;;2.72;;
48845;SDS011;34665;51.886;5.436;2022-10-26T12:05:34;10.38;;;2.63;;
48845;SDS011;34665;51.886;5.436;2022-10-26T12:08:34;8.07;;;2.70;;
48845;SDS011;34665;51.886;5.436;2022-10-26T12:11:08;6.18;;;2.25;;
48845;SDS011;34665;51.886;5.436;2022-10-26T12:19:14;4.85;;;2.20;;
48845;SDS011;34665;51.886;5.436;2022-10-26T12:21:46;6.57;;;2.08;;
48845;SDS011;34665;51.886;5.436;2022-10-26T12:29:33;7.47;;;2.55;;
48845;SDS011;34665;51.886;5.436;2022-10-26T12:34:57;5.18;;;2.45;;
48845;SDS011;34665;51.886;5.436;2022-10-26T12:37:32;9.15;;;2.75;;
48845;SDS011;34665;51.886;5.436;2022-10-26T12:41:06;7.38;;;2.50;;
48845;SDS011;34665;51.886;5.436;2022-10-26T12:42:55;4.20;;;2.50;;
48845;SDS011;34665;51.886;5.436;2022-10-26T12:45:21;6.45;;;2.53;;
48845;SDS011;34665;51.886;5.436;2022-10-26T12:52:53;5.80;;;2.15;;
48845;SDS011;34665;51.886;5.436;2022-10-26T12:58:23;8.13;;;2.42;;
48845;SDS011;34665;51.886;5.436;2022-10-26T13:03:59;4.57;;;2.22;;
48845;SDS011;34665;51.886;5.436;2022-10-26T13:09:13;7.32;;;2.53;;
48845;SDS011;34665;51.886;5.436;2022-10-26T13:11:45;8.65;;;2.17;;
48845;SDS011;34665;51.886;5.436;2022-10-26T13:14:17;6.32;;;2.85;;
48845;SDS011;34665;51.886;5.436;2022-10-26T13:16:45;6.63;;;2.33;;
48845;SDS011;34665;51.886;5.436;2022-10-26T13:21:50;3.03;;;1.98;;
48845;SDS011;34665;51.886;5.436;2022-10-26T13:24:16;7.97;;;2.30;;
48845;SDS011;34665;51.886;5.436;2022-10-26T13:27:39;7.30;;;2.50;;
48845;SDS011;34665;51.886;5.436;2022-10-26T13:32:30;7.65;;;2.03;;
48845;SDS011;34665;51.886;5.436;2022-10-26T13:34:59;4.93;;;1.90;;
48845;SDS011;34665;51.886;5.436;2022-10-26T13:37:28;8.13;;;2.38;;
48845;SDS011;34665;51.886;5.436;2022-10-26T13:39:56;4.70;;;2.60;;
48845;SDS011;34665;51.886;5.436;2022-10-26T13:42:30;10.52;;;2.85;;
48845;SDS011;34665;51.886;5.436;2022-10-26T13:45:07;7.35;;;2.30;;
48845;SDS011;34665;51.886;5.436;2022-10-26T13:47:45;5.03;;;1.73;;
48845;SDS011;34665;51.886;5.436;2022-10-26T13:50:18;5.40;;;1.80;;
48845;SDS011;34665;51.886;5.436;2022-10-26T13:52:49;8.75;;;1.65;;
48845;SDS011;34665;51.886;5.436;2022-10-26T14:00:35;7.82;;;1.90;;
48845;SDS011;34665;51.886;5.436;2022-10-26T14:03:12;12.50;;;1.40;;
48845;SDS011;34665;51.886;5.436;2022-10-26T14:05:42;8.40;;;1.58;;
48845;SDS011;34665;51.886;5.436;2022-10-26T14:08:13;6.13;;;1.92;;
48845;SDS011;34665;51.886;5.436;2022-10-26T14:10:44;6.32;;;1.92;;
48845;SDS011;34665;51.886;5.436;2022-10-26T14:13:13;7.82;;;2.03;;
48845;SDS011;34665;51.886;5.436;2022-10-26T14:15:42;3.30;;;1.77;;
48845;SDS011;34665;51.886;5.436;2022-10-26T14:18:20;3.45;;;1.70;;
48845;SDS011;34665;51.886;5.436;2022-10-26T14:20:52;8.52;;;1.35;;
48845;SDS011;34665;51.886;5.436;2022-10-26T14:25:59;7.95;;;2.00;;
48845;SDS011;34665;51.886;5.436;2022-10-26T14:28:26;4.68;;;1.45;;
48845;SDS011;34665;51.886;5.436;2022-10-26T14:30:53;4.28;;;1.27;;
48845;SDS011;34665;51.886;5.436;2022-10-26T14:33:22;6.68;;;1.40;;
48845;SDS011;34665;51.886;5.436;2022-10-26T14:35:51;9.20;;;1.25;;
48845;SDS011;34665;51.886;5.436;2022-10-26T14:38:21;6.18;;;1.42;;
48845;SDS011;34665;51.886;5.436;2022-10-26T14:40:56;4.85;;;1.40;;
48845;SDS011;34665;51.886;5.436;2022-10-26T14:43:23;6.38;;;1.40;;
48845;SDS011;34665;51.886;5.436;2022-10-26T14:45:51;7.18;;;2.47;;
48845;SDS011;34665;51.886;5.436;2022-10-26T14:48:19;3.83;;;1.35;;
48845;SDS011;34665;51.886;5.436;2022-10-26T14:50:56;6.10;;;1.35;;
48845;SDS011;34665;51.886;5.436;2022-10-26T14:53:24;5.63;;;1.52;;
48845;SDS011;34665;51.886;5.436;2022-10-26T14:55:55;5.72;;;1.27;;
48845;SDS011;34665;51.886;5.436;2022-10-26T14:58:22;4.03;;;1.20;;
48845;SDS011;34665;51.886;5.436;2022-10-26T15:03:39;7.28;;;1.90;;
48845;SDS011;34665;51.886;5.436;2022-10-26T15:08:55;4.72;;;1.33;;
48845;SDS011;34665;51.886;5.436;2022-10-26T15:11:22;5.53;;;1.10;;
48845;SDS011;34665;51.886;5.436;2022-10-26T15:13:48;8.10;;;1.83;;
48845;SDS011;34665;51.886;5.436;2022-10-26T15:18:48;5.93;;;1.30;;
48845;SDS011;34665;51.886;5.436;2022-10-26T15:21:21;6.00;;;1.80;;
48845;SDS011;34665;51.886;5.436;2022-10-26T15:23:50;10.90;;;2.53;;
48845;SDS011;34665;51.886;5.436;2022-10-26T15:26:16;6.20;;;1.40;;
48845;SDS011;34665;51.886;5.436;2022-10-26T15:28:42;3.53;;;1.20;;
48845;SDS011;34665;51.886;5.436;2022-10-26T15:36:12;10.47;;;1.77;;
48845;SDS011;34665;51.886;5.436;2022-10-26T15:38:42;4.47;;;1.20;;
48845;SDS011;34665;51.886;5.436;2022-10-26T15:41:16;5.93;;;1.97;;
48845;SDS011;34665;51.886;5.436;2022-10-26T15:46:11;7.77;;;1.70;;
48845;SDS011;34665;51.886;5.436;2022-10-26T15:48:37;9.43;;;1.95;;
48845;SDS011;34665;51.886;5.436;2022-10-26T15:51:05;10.23;;;2.50;;
48845;SDS011;34665;51.886;5.436;2022-10-26T15:53:34;11.50;;;2.27;;
48845;SDS011;34665;51.886;5.436;2022-10-26T15:56:00;10.88;;;2.05;;
48845;SDS011;34665;51.886;5.436;2022-10-26T15:58:27;7.90;;;2.20;;
48845;SDS011;34665;51.886;5.436;2022-10-26T16:00:55;11.67;;;1.90;;
48845;SDS011;34665;51.886;5.436;2022-10-26T16:03:21;5.93;;;2.20;;
48845;SDS011;34665;51.886;5.436;2022-10-26T16:05:48;10.63;;;2.10;;
48845;SDS011;34665;51.886;5.436;2022-10-26T16:08:21;4.27;;;1.73;;
48845;SDS011;34665;51.886;5.436;2022-10-26T16:10:46;4.45;;;1.55;;
48845;SDS011;34665;51.886;5.436;2022-10-26T16:13:12;4.97;;;1.58;;
48845;SDS011;34665;51.886;5.436;2022-10-26T16:15:39;5.90;;;1.73;;
48845;SDS011;34665;51.886;5.436;2022-10-26T16:20:31;8.10;;;2.03;;
48845;SDS011;34665;51.886;5.436;2022-10-26T16:22:56;7.18;;;2.22;;
48845;SDS011;34665;51.886;5.436;2022-10-26T16:25:25;14.77;;;3.60;;
48845;SDS011;34665;51.886;5.436;2022-10-26T16:27:52;12.63;;;4.50;;
48845;SDS011;34665;51.886;5.436;2022-10-26T16:30:19;11.70;;;4.67;;
48845;SDS011;34665;51.886;5.436;2022-10-26T16:35:12;10.40;;;3.20;;
48845;SDS011;34665;51.886;5.436;2022-10-26T16:40:04;7.20;;;3.67;;
48845;SDS011;34665;51.886;5.436;2022-10-26T16:42:30;12.30;;;3.23;;
48845;SDS011;34665;51.886;5.436;2022-10-26T16:44:56;8.50;;;3.40;;
48845;SDS011;34665;51.886;5.436;2022-10-26T16:47:21;12.70;;;3.28;;
48845;SDS011;34665;51.886;5.436;2022-10-26T16:49:47;8.60;;;3.33;;
48845;SDS011;34665;51.886;5.436;2022-10-26T16:52:12;10.13;;;2.65;;
48845;SDS011;34665;51.886;5.436;2022-10-26T16:54:38;10.00;;;3.40;;
48845;SDS011;34665;51.886;5.436;2022-10-26T16:57:03;12.60;;;3.22;;
48845;SDS011;34665;51.886;5.436;2022-10-26T17:01:55;8.87;;;2.10;;
48845;SDS011;34665;51.886;5.436;2022-10-26T17:04:23;7.93;;;2.37;;
48845;SDS011;34665;51.886;5.436;2022-10-26T17:09:14;8.30;;;2.40;;